sensor_id;sensor_type;location;lat;lon;timestamp;P1;durP1;ratioP1;P2;durP2;ratioP2
72584;SDS011;60618;40.084;32.908;2022-08-19T00:01:50;6.05;;;4.03;;
72584;SDS011;60618;40.084;32.908;2022-08-19T00:04:20;6.47;;;3.85;;
72584;SDS011;60618;40.084;32.908;2022-08-19T00:06:52;7.10;;;3.92;;
72584;SDS011;60618;40.084;32.908;2022-08-19T00:09:20;6.03;;;3.70;;
72584;SDS011;60618;40.084;32.908;2022-08-19T00:11:48;5.72;;;3.30;;
72584;SDS011;60618;40.084;32.908;2022-08-19T00:14:16;5.90;;;4.13;;
72584;SDS011;60618;40.084;32.908;2022-08-19T00:16:44;6.63;;;3.85;;
72584;SDS011;60618;40.084;32.908;2022-08-19T00:19:12;7.18;;;3.88;;
72584;SDS011;60618;40.084;32.908;2022-08-19T00:21:40;6.30;;;3.70;;
72584;SDS011;60618;40.084;32.908;2022-08-19T00:24:08;8.18;;;4.10;;
72584;SDS011;60618;40.084;32.908;2022-08-19T00:26:37;6.30;;;4.13;;
72584;SDS011;60618;40.084;32.908;2022-08-19T00:29:04;5.40;;;3.45;;
72584;SDS011;60618;40.084;32.908;2022-08-19T00:31:33;5.88;;;3.65;;
72584;SDS011;60618;40.084;32.908;2022-08-19T00:34:00;6.90;;;4.10;;
72584;SDS011;60618;40.084;32.908;2022-08-19T00:36:28;7.25;;;4.60;;
72584;SDS011;60618;40.084;32.908;2022-08-19T00:38:55;6.22;;;4.10;;
72584;SDS011;60618;40.084;32.908;2022-08-19T00:41:23;8.55;;;3.85;;
72584;SDS011;60618;40.084;32.908;2022-08-19T00:46:30;5.73;;;3.70;;
72584;SDS011;60618;40.084;32.908;2022-08-19T00:48:58;5.55;;;3.75;;
72584;SDS011;60618;40.084;32.908;2022-08-19T00:51:27;5.85;;;4.07;;
72584;SDS011;60618;40.084;32.908;2022-08-19T00:53:56;6.43;;;4.15;;
72584;SDS011;60618;40.084;32.908;2022-08-19T00:56:25;6.47;;;4.20;;
72584;SDS011;60618;40.084;32.908;2022-08-19T00:58:53;6.97;;;4.50;;
72584;SDS011;60618;40.084;32.908;2022-08-19T01:01:22;7.00;;;4.25;;
72584;SDS011;60618;40.084;32.908;2022-08-19T01:03:49;6.63;;;4.20;;
72584;SDS011;60618;40.084;32.908;2022-08-19T01:06:24;7.40;;;4.25;;
72584;SDS011;60618;40.084;32.908;2022-08-19T01:08:53;6.63;;;4.30;;
72584;SDS011;60618;40.084;32.908;2022-08-19T01:11:20;7.93;;;4.67;;
72584;SDS011;60618;40.084;32.908;2022-08-19T01:13:47;7.50;;;4.60;;
72584;SDS011;60618;40.084;32.908;2022-08-19T01:16:16;6.70;;;4.28;;
72584;SDS011;60618;40.084;32.908;2022-08-19T01:18:45;6.45;;;4.13;;
72584;SDS011;60618;40.084;32.908;2022-08-19T01:21:24;7.97;;;4.50;;
72584;SDS011;60618;40.084;32.908;2022-08-19T01:23:58;6.33;;;4.10;;
72584;SDS011;60618;40.084;32.908;2022-08-19T01:26:26;7.22;;;4.68;;
72584;SDS011;60618;40.084;32.908;2022-08-19T01:28:57;6.95;;;4.43;;
72584;SDS011;60618;40.084;32.908;2022-08-19T01:31:26;6.63;;;4.45;;
72584;SDS011;60618;40.084;32.908;2022-08-19T01:33:57;6.47;;;4.35;;
72584;SDS011;60618;40.084;32.908;2022-08-19T01:39:03;7.45;;;4.25;;
72584;SDS011;60618;40.084;32.908;2022-08-19T01:41:33;6.57;;;4.53;;
72584;SDS011;60618;40.084;32.908;2022-08-19T01:44:00;6.30;;;4.05;;
72584;SDS011;60618;40.084;32.908;2022-08-19T01:46:44;7.25;;;4.50;;
72584;SDS011;60618;40.084;32.908;2022-08-19T01:49:14;6.90;;;4.13;;
72584;SDS011;60618;40.084;32.908;2022-08-19T01:51:42;7.75;;;4.45;;
72584;SDS011;60618;40.084;32.908;2022-08-19T01:54:10;6.72;;;4.25;;
72584;SDS011;60618;40.084;32.908;2022-08-19T01:56:53;7.00;;;4.40;;
72584;SDS011;60618;40.084;32.908;2022-08-19T01:59:33;7.30;;;4.40;;
72584;SDS011;60618;40.084;32.908;2022-08-19T02:02:01;7.40;;;4.53;;
72584;SDS011;60618;40.084;32.908;2022-08-19T02:04:29;6.50;;;4.30;;
72584;SDS011;60618;40.084;32.908;2022-08-19T02:06:57;7.00;;;4.22;;
72584;SDS011;60618;40.084;32.908;2022-08-19T02:09:24;6.93;;;4.20;;
72584;SDS011;60618;40.084;32.908;2022-08-19T02:11:50;7.07;;;4.10;;
72584;SDS011;60618;40.084;32.908;2022-08-19T02:14:17;7.17;;;4.47;;
72584;SDS011;60618;40.084;32.908;2022-08-19T02:16:44;6.65;;;4.40;;
72584;SDS011;60618;40.084;32.908;2022-08-19T02:19:11;5.80;;;3.78;;
72584;SDS011;60618;40.084;32.908;2022-08-19T02:21:38;6.68;;;4.20;;
72584;SDS011;60618;40.084;32.908;2022-08-19T02:24:05;6.43;;;4.00;;
72584;SDS011;60618;40.084;32.908;2022-08-19T02:26:32;6.00;;;4.03;;
72584;SDS011;60618;40.084;32.908;2022-08-19T02:28:59;6.32;;;4.03;;
72584;SDS011;60618;40.084;32.908;2022-08-19T02:31:26;7.13;;;4.13;;
72584;SDS011;60618;40.084;32.908;2022-08-19T02:33:53;5.97;;;3.88;;
72584;SDS011;60618;40.084;32.908;2022-08-19T02:36:23;6.15;;;3.97;;
72584;SDS011;60618;40.084;32.908;2022-08-19T02:38:51;6.07;;;4.03;;
72584;SDS011;60618;40.084;32.908;2022-08-19T02:41:24;6.38;;;3.88;;
72584;SDS011;60618;40.084;32.908;2022-08-19T02:43:54;7.78;;;4.20;;
72584;SDS011;60618;40.084;32.908;2022-08-19T02:46:41;7.47;;;4.20;;
72584;SDS011;60618;40.084;32.908;2022-08-19T02:49:08;6.50;;;4.25;;
72584;SDS011;60618;40.084;32.908;2022-08-19T02:51:37;6.63;;;4.13;;
72584;SDS011;60618;40.084;32.908;2022-08-19T02:54:08;5.43;;;3.60;;
72584;SDS011;60618;40.084;32.908;2022-08-19T02:56:38;7.00;;;4.10;;
72584;SDS011;60618;40.084;32.908;2022-08-19T02:59:06;6.30;;;4.15;;
72584;SDS011;60618;40.084;32.908;2022-08-19T03:01:35;7.05;;;4.45;;
72584;SDS011;60618;40.084;32.908;2022-08-19T03:04:03;7.03;;;4.47;;
72584;SDS011;60618;40.084;32.908;2022-08-19T03:06:32;7.43;;;4.30;;
72584;SDS011;60618;40.084;32.908;2022-08-19T03:09:02;6.60;;;4.57;;
72584;SDS011;60618;40.084;32.908;2022-08-19T03:11:30;6.63;;;4.40;;
72584;SDS011;60618;40.084;32.908;2022-08-19T03:13:58;6.30;;;4.20;;
72584;SDS011;60618;40.084;32.908;2022-08-19T03:16:27;6.17;;;4.23;;
72584;SDS011;60618;40.084;32.908;2022-08-19T03:18:58;7.75;;;4.50;;
72584;SDS011;60618;40.084;32.908;2022-08-19T03:21:27;6.40;;;4.40;;
72584;SDS011;60618;40.084;32.908;2022-08-19T03:23:58;7.93;;;4.65;;
72584;SDS011;60618;40.084;32.908;2022-08-19T03:26:26;8.50;;;4.82;;
72584;SDS011;60618;40.084;32.908;2022-08-19T03:28:54;7.30;;;4.80;;
72584;SDS011;60618;40.084;32.908;2022-08-19T03:31:24;6.80;;;4.43;;
72584;SDS011;60618;40.084;32.908;2022-08-19T03:34:14;7.03;;;4.40;;
72584;SDS011;60618;40.084;32.908;2022-08-19T03:36:43;7.00;;;4.20;;
72584;SDS011;60618;40.084;32.908;2022-08-19T03:39:10;5.72;;;3.70;;
72584;SDS011;60618;40.084;32.908;2022-08-19T03:41:37;6.20;;;3.70;;
72584;SDS011;60618;40.084;32.908;2022-08-19T03:44:10;7.97;;;4.28;;
72584;SDS011;60618;40.084;32.908;2022-08-19T03:46:44;6.10;;;4.00;;
72584;SDS011;60618;40.084;32.908;2022-08-19T03:49:12;6.97;;;4.10;;
72584;SDS011;60618;40.084;32.908;2022-08-19T03:51:40;6.60;;;4.40;;
72584;SDS011;60618;40.084;32.908;2022-08-19T03:54:09;6.87;;;4.20;;
72584;SDS011;60618;40.084;32.908;2022-08-19T03:56:39;6.47;;;3.92;;
72584;SDS011;60618;40.084;32.908;2022-08-19T03:59:10;7.97;;;4.25;;
72584;SDS011;60618;40.084;32.908;2022-08-19T04:01:39;6.70;;;4.60;;
72584;SDS011;60618;40.084;32.908;2022-08-19T04:04:06;6.80;;;4.40;;
72584;SDS011;60618;40.084;32.908;2022-08-19T04:06:35;9.27;;;5.00;;
72584;SDS011;60618;40.084;32.908;2022-08-19T04:09:06;9.43;;;5.30;;
72584;SDS011;60618;40.084;32.908;2022-08-19T04:11:54;9.68;;;5.40;;
72584;SDS011;60618;40.084;32.908;2022-08-19T04:14:25;9.20;;;5.05;;
72584;SDS011;60618;40.084;32.908;2022-08-19T04:16:53;8.55;;;5.55;;
72584;SDS011;60618;40.084;32.908;2022-08-19T04:19:20;9.00;;;5.60;;
72584;SDS011;60618;40.084;32.908;2022-08-19T04:21:49;11.23;;;5.75;;
72584;SDS011;60618;40.084;32.908;2022-08-19T04:24:18;7.97;;;5.40;;
72584;SDS011;60618;40.084;32.908;2022-08-19T04:26:46;8.65;;;4.80;;
72584;SDS011;60618;40.084;32.908;2022-08-19T04:29:15;9.35;;;4.85;;
72584;SDS011;60618;40.084;32.908;2022-08-19T04:31:44;9.93;;;4.77;;
72584;SDS011;60618;40.084;32.908;2022-08-19T04:34:13;11.18;;;4.90;;
72584;SDS011;60618;40.084;32.908;2022-08-19T04:36:42;10.57;;;4.60;;
72584;SDS011;60618;40.084;32.908;2022-08-19T04:39:11;10.23;;;4.82;;
72584;SDS011;60618;40.084;32.908;2022-08-19T04:41:40;6.22;;;4.40;;
72584;SDS011;60618;40.084;32.908;2022-08-19T04:44:07;6.57;;;4.30;;
72584;SDS011;60618;40.084;32.908;2022-08-19T04:46:35;8.23;;;4.32;;
72584;SDS011;60618;40.084;32.908;2022-08-19T04:49:17;7.75;;;4.60;;
72584;SDS011;60618;40.084;32.908;2022-08-19T04:51:46;11.27;;;5.13;;
72584;SDS011;60618;40.084;32.908;2022-08-19T04:54:13;11.23;;;5.13;;
72584;SDS011;60618;40.084;32.908;2022-08-19T04:57:01;7.50;;;4.80;;
72584;SDS011;60618;40.084;32.908;2022-08-19T04:59:29;8.88;;;5.13;;
72584;SDS011;60618;40.084;32.908;2022-08-19T05:01:56;9.80;;;5.45;;
72584;SDS011;60618;40.084;32.908;2022-08-19T05:04:23;9.02;;;5.32;;
72584;SDS011;60618;40.084;32.908;2022-08-19T05:06:50;9.95;;;5.72;;
72584;SDS011;60618;40.084;32.908;2022-08-19T05:09:17;14.40;;;6.73;;
72584;SDS011;60618;40.084;32.908;2022-08-19T05:11:44;10.50;;;6.30;;
72584;SDS011;60618;40.084;32.908;2022-08-19T05:14:11;9.43;;;5.70;;
72584;SDS011;60618;40.084;32.908;2022-08-19T05:16:38;9.25;;;5.70;;
72584;SDS011;60618;40.084;32.908;2022-08-19T05:19:05;9.65;;;5.35;;
72584;SDS011;60618;40.084;32.908;2022-08-19T05:21:32;9.60;;;4.70;;
72584;SDS011;60618;40.084;32.908;2022-08-19T05:24:00;6.63;;;4.40;;
72584;SDS011;60618;40.084;32.908;2022-08-19T05:26:27;7.40;;;4.50;;
72584;SDS011;60618;40.084;32.908;2022-08-19T05:28:55;6.20;;;4.40;;
72584;SDS011;60618;40.084;32.908;2022-08-19T05:31:21;7.95;;;4.50;;
72584;SDS011;60618;40.084;32.908;2022-08-19T05:33:48;6.43;;;3.93;;
72584;SDS011;60618;40.084;32.908;2022-08-19T05:36:15;6.72;;;4.68;;
72584;SDS011;60618;40.084;32.908;2022-08-19T05:38:42;8.57;;;4.70;;
72584;SDS011;60618;40.084;32.908;2022-08-19T05:41:09;6.15;;;4.22;;
72584;SDS011;60618;40.084;32.908;2022-08-19T05:43:39;6.30;;;4.47;;
72584;SDS011;60618;40.084;32.908;2022-08-19T05:46:06;6.23;;;4.53;;
72584;SDS011;60618;40.084;32.908;2022-08-19T05:48:34;5.82;;;4.25;;
72584;SDS011;60618;40.084;32.908;2022-08-19T05:51:05;6.18;;;4.28;;
72584;SDS011;60618;40.084;32.908;2022-08-19T06:10:44;6.70;;;4.55;;
72584;SDS011;60618;40.084;32.908;2022-08-19T06:13:11;6.57;;;4.40;;
72584;SDS011;60618;40.084;32.908;2022-08-19T06:15:38;8.57;;;4.43;;
72584;SDS011;60618;40.084;32.908;2022-08-19T06:18:05;5.70;;;4.20;;
72584;SDS011;60618;40.084;32.908;2022-08-19T06:20:32;7.90;;;4.30;;
72584;SDS011;60618;40.084;32.908;2022-08-19T06:23:19;6.20;;;4.15;;
72584;SDS011;60618;40.084;32.908;2022-08-19T06:25:49;6.00;;;4.30;;
72584;SDS011;60618;40.084;32.908;2022-08-19T06:28:16;5.53;;;3.83;;
72584;SDS011;60618;40.084;32.908;2022-08-19T06:30:43;6.07;;;3.90;;
72584;SDS011;60618;40.084;32.908;2022-08-19T06:33:10;6.70;;;4.00;;
72584;SDS011;60618;40.084;32.908;2022-08-19T06:35:39;7.40;;;3.80;;
72584;SDS011;60618;40.084;32.908;2022-08-19T06:38:06;6.40;;;3.65;;
72584;SDS011;60618;40.084;32.908;2022-08-19T06:40:34;6.97;;;4.10;;
72584;SDS011;60618;40.084;32.908;2022-08-19T06:43:00;6.30;;;3.80;;
72584;SDS011;60618;40.084;32.908;2022-08-19T06:45:30;5.35;;;3.58;;
72584;SDS011;60618;40.084;32.908;2022-08-19T06:48:01;5.00;;;3.30;;
72584;SDS011;60618;40.084;32.908;2022-08-19T06:50:28;6.30;;;3.20;;
72584;SDS011;60618;40.084;32.908;2022-08-19T06:52:55;5.28;;;3.40;;
72584;SDS011;60618;40.084;32.908;2022-08-19T06:55:23;5.57;;;3.40;;
72584;SDS011;60618;40.084;32.908;2022-08-19T06:57:50;5.53;;;3.40;;
72584;SDS011;60618;40.084;32.908;2022-08-19T07:00:17;6.32;;;4.03;;
72584;SDS011;60618;40.084;32.908;2022-08-19T07:02:44;7.05;;;4.28;;
72584;SDS011;60618;40.084;32.908;2022-08-19T07:05:20;5.97;;;3.78;;
72584;SDS011;60618;40.084;32.908;2022-08-19T07:07:48;5.63;;;3.80;;
72584;SDS011;60618;40.084;32.908;2022-08-19T07:10:16;6.43;;;4.13;;
72584;SDS011;60618;40.084;32.908;2022-08-19T07:12:43;5.72;;;3.90;;
72584;SDS011;60618;40.084;32.908;2022-08-19T07:15:11;5.70;;;3.88;;
72584;SDS011;60618;40.084;32.908;2022-08-19T07:17:38;7.40;;;4.22;;
72584;SDS011;60618;40.084;32.908;2022-08-19T07:20:07;6.10;;;4.13;;
72584;SDS011;60618;40.084;32.908;2022-08-19T07:22:38;5.38;;;3.83;;
72584;SDS011;60618;40.084;32.908;2022-08-19T07:25:07;5.88;;;3.90;;
72584;SDS011;60618;40.084;32.908;2022-08-19T07:27:35;7.20;;;3.65;;
72584;SDS011;60618;40.084;32.908;2022-08-19T07:30:05;6.03;;;4.22;;
72584;SDS011;60618;40.084;32.908;2022-08-19T07:32:37;6.53;;;4.40;;
72584;SDS011;60618;40.084;32.908;2022-08-19T07:35:04;6.07;;;4.25;;
72584;SDS011;60618;40.084;32.908;2022-08-19T07:37:31;5.88;;;4.30;;
72584;SDS011;60618;40.084;32.908;2022-08-19T07:39:59;5.78;;;4.00;;
72584;SDS011;60618;40.084;32.908;2022-08-19T07:42:27;7.38;;;4.40;;
72584;SDS011;60618;40.084;32.908;2022-08-19T07:44:54;6.50;;;4.07;;
72584;SDS011;60618;40.084;32.908;2022-08-19T07:47:21;5.82;;;4.13;;
72584;SDS011;60618;40.084;32.908;2022-08-19T07:50:08;5.45;;;4.15;;
72584;SDS011;60618;40.084;32.908;2022-08-19T07:52:36;5.63;;;4.30;;
72584;SDS011;60618;40.084;32.908;2022-08-19T07:55:04;7.35;;;4.35;;
72584;SDS011;60618;40.084;32.908;2022-08-19T07:57:53;7.13;;;4.83;;
72584;SDS011;60618;40.084;32.908;2022-08-19T08:00:20;6.30;;;4.53;;
72584;SDS011;60618;40.084;32.908;2022-08-19T08:02:50;6.85;;;4.55;;
72584;SDS011;60618;40.084;32.908;2022-08-19T08:05:20;6.03;;;4.50;;
72584;SDS011;60618;40.084;32.908;2022-08-19T08:07:48;6.03;;;4.22;;
72584;SDS011;60618;40.084;32.908;2022-08-19T08:10:14;6.20;;;4.33;;
72584;SDS011;60618;40.084;32.908;2022-08-19T08:12:47;5.72;;;4.07;;
72584;SDS011;60618;40.084;32.908;2022-08-19T08:15:34;6.93;;;4.38;;
72584;SDS011;60618;40.084;32.908;2022-08-19T08:18:07;7.20;;;4.60;;
72584;SDS011;60618;40.084;32.908;2022-08-19T08:20:34;5.75;;;4.57;;
72584;SDS011;60618;40.084;32.908;2022-08-19T08:23:01;6.70;;;4.83;;
72584;SDS011;60618;40.084;32.908;2022-08-19T08:25:28;6.95;;;5.43;;
72584;SDS011;60618;40.084;32.908;2022-08-19T08:27:59;6.35;;;4.65;;
72584;SDS011;60618;40.084;32.908;2022-08-19T08:30:26;6.90;;;5.22;;
72584;SDS011;60618;40.084;32.908;2022-08-19T08:32:58;6.35;;;4.75;;
72584;SDS011;60618;40.084;32.908;2022-08-19T08:35:27;6.27;;;5.00;;
72584;SDS011;60618;40.084;32.908;2022-08-19T08:37:55;10.00;;;5.60;;
72584;SDS011;60618;40.084;32.908;2022-08-19T08:45:47;7.00;;;5.05;;
72584;SDS011;60618;40.084;32.908;2022-08-19T08:50:59;9.38;;;4.80;;
72584;SDS011;60618;40.084;32.908;2022-08-19T08:53:30;7.50;;;5.13;;
72584;SDS011;60618;40.084;32.908;2022-08-19T08:56:05;6.40;;;4.93;;
72584;SDS011;60618;40.084;32.908;2022-08-19T09:01:20;7.40;;;5.17;;
72584;SDS011;60618;40.084;32.908;2022-08-19T09:03:47;7.05;;;4.93;;
72584;SDS011;60618;40.084;32.908;2022-08-19T09:08:56;6.80;;;4.32;;
72584;SDS011;60618;40.084;32.908;2022-08-19T09:11:44;6.20;;;4.55;;
72584;SDS011;60618;40.084;32.908;2022-08-19T09:17:27;8.43;;;4.82;;
72584;SDS011;60618;40.084;32.908;2022-08-19T09:22:26;7.10;;;4.22;;
72584;SDS011;60618;40.084;32.908;2022-08-19T09:24:54;7.30;;;4.80;;
72584;SDS011;60618;40.084;32.908;2022-08-19T09:27:21;6.30;;;5.27;;
72584;SDS011;60618;40.084;32.908;2022-08-19T09:30:09;7.57;;;4.80;;
72584;SDS011;60618;40.084;32.908;2022-08-19T09:32:41;6.70;;;4.90;;
72584;SDS011;60618;40.084;32.908;2022-08-19T09:35:08;8.88;;;5.20;;
72584;SDS011;60618;40.084;32.908;2022-08-19T09:37:37;7.60;;;5.38;;
72584;SDS011;60618;40.084;32.908;2022-08-19T09:40:05;7.20;;;5.60;;
72584;SDS011;60618;40.084;32.908;2022-08-19T09:42:37;8.30;;;5.70;;
72584;SDS011;60618;40.084;32.908;2022-08-19T09:45:15;8.25;;;5.45;;
72584;SDS011;60618;40.084;32.908;2022-08-19T09:47:43;7.82;;;5.60;;
72584;SDS011;60618;40.084;32.908;2022-08-19T09:50:12;8.82;;;5.90;;
72584;SDS011;60618;40.084;32.908;2022-08-19T09:52:41;7.90;;;5.60;;
72584;SDS011;60618;40.084;32.908;2022-08-19T09:55:22;8.43;;;5.55;;
72584;SDS011;60618;40.084;32.908;2022-08-19T09:57:49;7.72;;;5.50;;
72584;SDS011;60618;40.084;32.908;2022-08-19T10:00:16;8.40;;;5.88;;
72584;SDS011;60618;40.084;32.908;2022-08-19T10:02:43;9.52;;;5.85;;
72584;SDS011;60618;40.084;32.908;2022-08-19T10:05:11;7.47;;;5.40;;
72584;SDS011;60618;40.084;32.908;2022-08-19T10:07:38;6.97;;;4.93;;
72584;SDS011;60618;40.084;32.908;2022-08-19T10:10:05;7.43;;;5.38;;
72584;SDS011;60618;40.084;32.908;2022-08-19T10:12:33;6.57;;;5.28;;
72584;SDS011;60618;40.084;32.908;2022-08-19T10:15:01;7.93;;;5.97;;
72584;SDS011;60618;40.084;32.908;2022-08-19T10:17:29;8.23;;;5.60;;
72584;SDS011;60618;40.084;32.908;2022-08-19T10:20:01;7.97;;;5.45;;
72584;SDS011;60618;40.084;32.908;2022-08-19T10:22:29;7.55;;;5.60;;
72584;SDS011;60618;40.084;32.908;2022-08-19T10:24:56;7.65;;;5.47;;
72584;SDS011;60618;40.084;32.908;2022-08-19T10:27:23;7.45;;;6.00;;
72584;SDS011;60618;40.084;32.908;2022-08-19T10:29:51;8.33;;;5.67;;
72584;SDS011;60618;40.084;32.908;2022-08-19T10:32:23;8.43;;;5.50;;
72584;SDS011;60618;40.084;32.908;2022-08-19T10:34:59;6.85;;;5.47;;
72584;SDS011;60618;40.084;32.908;2022-08-19T10:37:27;6.85;;;5.47;;
72584;SDS011;60618;40.084;32.908;2022-08-19T10:39:57;7.70;;;5.88;;
72584;SDS011;60618;40.084;32.908;2022-08-19T10:42:24;8.73;;;6.40;;
72584;SDS011;60618;40.084;32.908;2022-08-19T10:44:51;7.72;;;5.60;;
72584;SDS011;60618;40.084;32.908;2022-08-19T10:47:18;8.55;;;5.97;;
72584;SDS011;60618;40.084;32.908;2022-08-19T10:49:51;6.78;;;5.15;;
72584;SDS011;60618;40.084;32.908;2022-08-19T10:52:20;7.07;;;5.07;;
72584;SDS011;60618;40.084;32.908;2022-08-19T10:54:57;7.83;;;5.27;;
72584;SDS011;60618;40.084;32.908;2022-08-19T10:57:30;7.38;;;5.15;;
72584;SDS011;60618;40.084;32.908;2022-08-19T11:00:18;6.78;;;4.90;;
72584;SDS011;60618;40.084;32.908;2022-08-19T11:02:47;6.57;;;4.90;;
72584;SDS011;60618;40.084;32.908;2022-08-19T11:05:14;6.82;;;5.32;;
72584;SDS011;60618;40.084;32.908;2022-08-19T11:07:41;6.77;;;5.00;;
72584;SDS011;60618;40.084;32.908;2022-08-19T11:10:09;6.68;;;4.97;;
72584;SDS011;60618;40.084;32.908;2022-08-19T11:12:38;6.35;;;4.93;;
72584;SDS011;60618;40.084;32.908;2022-08-19T11:15:07;7.07;;;5.07;;
72584;SDS011;60618;40.084;32.908;2022-08-19T11:17:35;8.25;;;5.13;;
72584;SDS011;60618;40.084;32.908;2022-08-19T11:20:02;6.70;;;5.00;;
72584;SDS011;60618;40.084;32.908;2022-08-19T11:22:30;6.68;;;5.22;;
72584;SDS011;60618;40.084;32.908;2022-08-19T11:25:03;6.85;;;4.95;;
72584;SDS011;60618;40.084;32.908;2022-08-19T11:27:30;6.47;;;4.93;;
72584;SDS011;60618;40.084;32.908;2022-08-19T11:29:57;6.50;;;4.95;;
72584;SDS011;60618;40.084;32.908;2022-08-19T11:32:23;7.53;;;5.30;;
72584;SDS011;60618;40.084;32.908;2022-08-19T11:34:50;7.30;;;5.20;;
72584;SDS011;60618;40.084;32.908;2022-08-19T11:37:18;6.75;;;5.15;;
72584;SDS011;60618;40.084;32.908;2022-08-19T11:39:45;7.15;;;5.03;;
72584;SDS011;60618;40.084;32.908;2022-08-19T11:42:19;7.03;;;5.40;;
72584;SDS011;60618;40.084;32.908;2022-08-19T11:44:46;6.30;;;4.73;;
72584;SDS011;60618;40.084;32.908;2022-08-19T11:47:12;5.93;;;4.30;;
72584;SDS011;60618;40.084;32.908;2022-08-19T11:49:39;6.97;;;5.00;;
72584;SDS011;60618;40.084;32.908;2022-08-19T11:52:06;6.45;;;4.75;;
72584;SDS011;60618;40.084;32.908;2022-08-19T11:54:33;6.65;;;4.60;;
72584;SDS011;60618;40.084;32.908;2022-08-19T11:57:02;7.97;;;5.53;;
72584;SDS011;60618;40.084;32.908;2022-08-19T11:59:30;6.90;;;5.00;;
72584;SDS011;60618;40.084;32.908;2022-08-19T12:01:56;8.13;;;5.07;;
72584;SDS011;60618;40.084;32.908;2022-08-19T12:04:23;7.93;;;5.53;;
72584;SDS011;60618;40.084;32.908;2022-08-19T12:06:50;7.18;;;4.88;;
72584;SDS011;60618;40.084;32.908;2022-08-19T12:09:17;7.97;;;5.00;;
72584;SDS011;60618;40.084;32.908;2022-08-19T12:11:44;7.93;;;4.82;;
72584;SDS011;60618;40.084;32.908;2022-08-19T12:14:12;7.45;;;5.10;;
72584;SDS011;60618;40.084;32.908;2022-08-19T12:16:40;6.53;;;4.68;;
72584;SDS011;60618;40.084;32.908;2022-08-19T12:19:17;7.50;;;5.20;;
72584;SDS011;60618;40.084;32.908;2022-08-19T12:21:48;6.43;;;4.60;;
72584;SDS011;60618;40.084;32.908;2022-08-19T12:24:15;6.53;;;4.28;;
72584;SDS011;60618;40.084;32.908;2022-08-19T12:26:42;7.50;;;4.18;;
72584;SDS011;60618;40.084;32.908;2022-08-19T12:29:19;5.65;;;3.90;;
72584;SDS011;60618;40.084;32.908;2022-08-19T12:31:49;6.22;;;3.80;;
72584;SDS011;60618;40.084;32.908;2022-08-19T12:34:16;5.83;;;4.07;;
72584;SDS011;60618;40.084;32.908;2022-08-19T12:36:43;6.03;;;4.30;;
72584;SDS011;60618;40.084;32.908;2022-08-19T12:39:10;5.72;;;3.80;;
72584;SDS011;60618;40.084;32.908;2022-08-19T12:41:38;5.68;;;3.90;;
72584;SDS011;60618;40.084;32.908;2022-08-19T12:44:19;4.90;;;3.70;;
72584;SDS011;60618;40.084;32.908;2022-08-19T12:46:54;6.30;;;4.10;;
72584;SDS011;60618;40.084;32.908;2022-08-19T12:49:22;5.13;;;3.90;;
72584;SDS011;60618;40.084;32.908;2022-08-19T12:52:09;6.03;;;3.92;;
72584;SDS011;60618;40.084;32.908;2022-08-19T12:54:39;5.93;;;3.70;;
72584;SDS011;60618;40.084;32.908;2022-08-19T12:57:06;5.05;;;3.75;;
72584;SDS011;60618;40.084;32.908;2022-08-19T12:59:37;5.43;;;4.03;;
72584;SDS011;60618;40.084;32.908;2022-08-19T13:02:05;5.50;;;3.92;;
72584;SDS011;60618;40.084;32.908;2022-08-19T13:04:33;7.82;;;4.65;;
72584;SDS011;60618;40.084;32.908;2022-08-19T13:07:01;5.45;;;3.88;;
72584;SDS011;60618;40.084;32.908;2022-08-19T13:09:29;6.18;;;4.10;;
72584;SDS011;60618;40.084;32.908;2022-08-19T13:11:57;5.63;;;4.13;;
72584;SDS011;60618;40.084;32.908;2022-08-19T13:14:23;7.97;;;3.95;;
72584;SDS011;60618;40.084;32.908;2022-08-19T13:16:52;9.82;;;4.70;;
72584;SDS011;60618;40.084;32.908;2022-08-19T13:19:19;6.20;;;4.10;;
72584;SDS011;60618;40.084;32.908;2022-08-19T13:21:45;6.80;;;3.80;;
72584;SDS011;60618;40.084;32.908;2022-08-19T13:24:25;7.67;;;4.40;;
72584;SDS011;60618;40.084;32.908;2022-08-19T13:26:59;6.75;;;4.50;;
72584;SDS011;60618;40.084;32.908;2022-08-19T13:29:27;7.47;;;4.10;;
72584;SDS011;60618;40.084;32.908;2022-08-19T13:31:54;10.25;;;4.57;;
72584;SDS011;60618;40.084;32.908;2022-08-19T13:34:30;8.05;;;4.25;;
72584;SDS011;60618;40.084;32.908;2022-08-19T13:36:59;5.47;;;4.03;;
72584;SDS011;60618;40.084;32.908;2022-08-19T13:39:26;6.55;;;4.40;;
72584;SDS011;60618;40.084;32.908;2022-08-19T13:41:53;6.32;;;4.50;;
72584;SDS011;60618;40.084;32.908;2022-08-19T13:44:20;6.88;;;3.90;;
72584;SDS011;60618;40.084;32.908;2022-08-19T13:46:47;7.05;;;4.07;;
72584;SDS011;60618;40.084;32.908;2022-08-19T13:49:19;6.47;;;4.30;;
72584;SDS011;60618;40.084;32.908;2022-08-19T13:51:46;5.53;;;4.20;;
72584;SDS011;60618;40.084;32.908;2022-08-19T13:54:13;6.13;;;4.13;;
72584;SDS011;60618;40.084;32.908;2022-08-19T13:56:43;6.53;;;4.47;;
72584;SDS011;60618;40.084;32.908;2022-08-19T13:59:12;6.03;;;4.43;;
72584;SDS011;60618;40.084;32.908;2022-08-19T14:01:39;6.30;;;4.07;;
72584;SDS011;60618;40.084;32.908;2022-08-19T14:04:07;5.28;;;3.90;;
72584;SDS011;60618;40.084;32.908;2022-08-19T14:06:34;6.45;;;4.10;;
72584;SDS011;60618;40.084;32.908;2022-08-19T14:09:01;6.45;;;4.30;;
72584;SDS011;60618;40.084;32.908;2022-08-19T14:11:28;5.97;;;4.60;;
72584;SDS011;60618;40.084;32.908;2022-08-19T14:13:56;6.63;;;4.23;;
72584;SDS011;60618;40.084;32.908;2022-08-19T14:16:23;7.32;;;4.88;;
72584;SDS011;60618;40.084;32.908;2022-08-19T14:18:50;9.38;;;4.20;;
72584;SDS011;60618;40.084;32.908;2022-08-19T14:21:19;7.40;;;4.60;;
72584;SDS011;60618;40.084;32.908;2022-08-19T14:23:51;7.00;;;4.80;;
72584;SDS011;60618;40.084;32.908;2022-08-19T14:26:19;5.40;;;4.20;;
72584;SDS011;60618;40.084;32.908;2022-08-19T14:28:48;5.32;;;3.80;;
72584;SDS011;60618;40.084;32.908;2022-08-19T14:31:16;5.45;;;4.30;;
72584;SDS011;60618;40.084;32.908;2022-08-19T14:33:45;5.88;;;4.47;;
72584;SDS011;60618;40.084;32.908;2022-08-19T14:36:15;6.75;;;4.40;;
72584;SDS011;60618;40.084;32.908;2022-08-19T14:38:42;5.57;;;3.80;;
72584;SDS011;60618;40.084;32.908;2022-08-19T14:41:14;6.13;;;4.32;;
72584;SDS011;60618;40.084;32.908;2022-08-19T14:43:43;5.35;;;4.00;;
72584;SDS011;60618;40.084;32.908;2022-08-19T14:46:12;5.95;;;4.30;;
72584;SDS011;60618;40.084;32.908;2022-08-19T14:48:45;5.70;;;4.00;;
72584;SDS011;60618;40.084;32.908;2022-08-19T14:51:17;6.03;;;3.90;;
72584;SDS011;60618;40.084;32.908;2022-08-19T14:53:45;5.47;;;4.28;;
72584;SDS011;60618;40.084;32.908;2022-08-19T14:56:13;6.85;;;3.95;;
72584;SDS011;60618;40.084;32.908;2022-08-19T14:58:42;7.95;;;4.40;;
72584;SDS011;60618;40.084;32.908;2022-08-19T15:01:09;6.72;;;4.30;;
72584;SDS011;60618;40.084;32.908;2022-08-19T15:03:37;5.10;;;3.73;;
72584;SDS011;60618;40.084;32.908;2022-08-19T15:06:05;6.63;;;4.45;;
72584;SDS011;60618;40.084;32.908;2022-08-19T15:08:33;6.28;;;4.47;;
72584;SDS011;60618;40.084;32.908;2022-08-19T15:11:02;6.65;;;4.80;;
72584;SDS011;60618;40.084;32.908;2022-08-19T15:13:33;6.35;;;4.47;;
72584;SDS011;60618;40.084;32.908;2022-08-19T15:16:00;6.87;;;4.70;;
72584;SDS011;60618;40.084;32.908;2022-08-19T15:18:27;7.22;;;5.32;;
72584;SDS011;60618;40.084;32.908;2022-08-19T15:20:54;8.68;;;5.63;;
72584;SDS011;60618;40.084;32.908;2022-08-19T15:23:21;6.82;;;4.82;;
72584;SDS011;60618;40.084;32.908;2022-08-19T15:25:48;6.90;;;5.03;;
72584;SDS011;60618;40.084;32.908;2022-08-19T15:28:16;8.50;;;5.50;;